Time;durP1;ratioP1;P1;durP2;ratioP2;P2;SDS_P1;SDS_P2;PMS_P1;PMS_P2;Temp;Humidity;BMP_temperature;BMP_pressure;BME280_temperature;BME280_humidity;BME280_pressure;Samples;Min_cycle;Max_cycle;Signal;HPM_P1;HPM_P2
2024/02/10 00:00:49;;;;;;;0.00;0.00;;;23.20;39.50;;;;;;4968809;28;20638;-49
2024/02/10 00:03:22;;;;;;;0.00;0.00;;;23.30;39.50;;;;;;4969246;28;20299;-49
2024/02/10 00:05:53;;;;;;;0.00;0.00;;;23.20;39.50;;;;;;4968836;28;20206;-47
2024/02/10 00:08:23;;;;;;;0.00;0.00;;;23.20;39.50;;;;;;4969973;28;20222;-47
2024/02/10 00:11:02;;;;;;;0.00;0.00;;;23.20;39.30;;;;;;4969282;28;20703;-49
2024/02/10 00:13:35;;;;;;;0.00;0.00;;;23.20;39.30;;;;;;4967804;28;20234;-49
2024/02/10 00:16:06;;;;;;;0.00;0.00;;;23.20;39.60;;;;;;4968467;28;20233;-49
2024/02/10 00:18:37;;;;;;;0.00;0.00;;;23.20;39.60;;;;;;4984347;28;20217;-49
2024/02/10 00:21:08;;;;;;;0.00;0.00;;;23.20;39.70;;;;;;4968894;28;20233;-46
2024/02/10 00:23:38;;;;;;;0.03;0.03;;;23.20;39.70;;;;;;4968566;28;20209;-49
2024/02/10 00:26:11;;;;;;;0.10;0.10;;;23.20;39.70;;;;;;4968432;28;20206;-49
2024/02/10 00:28:43;;;;;;;0.00;0.00;;;23.20;39.70;;;;;;4968682;28;20226;-53
2024/02/10 00:31:14;;;;;;;0.10;0.10;;;23.20;39.50;;;;;;4969801;28;20253;-50
2024/02/10 00:33:46;;;;;;;0.10;0.10;;;23.20;39.40;;;;;;4968223;28;20213;-49
2024/02/10 00:36:17;;;;;;;0.10;0.10;;;23.20;39.30;;;;;;4972206;28;20194;-50
2024/02/10 00:38:47;;;;;;;0.00;0.00;;;23.20;39.30;;;;;;4972722;28;20218;-47
2024/02/10 00:41:20;;;;;;;0.00;0.00;;;23.20;39.20;;;;;;4972683;28;20233;-48
2024/02/10 00:43:51;;;;;;;0.00;0.00;;;23.20;39.20;;;;;;4973595;28;20196;-49
2024/02/10 00:46:22;;;;;;;0.00;0.00;;;23.30;39.30;;;;;;4974297;28;20202;-49
2024/02/10 00:48:54;;;;;;;0.00;0.00;;;23.30;39.20;;;;;;4975788;28;20221;-50
2024/02/10 00:51:27;;;;;;;0.10;0.10;;;23.30;39.20;;;;;;4976027;28;20674;-49
2024/02/10 00:53:57;;;;;;;0.10;0.10;;;23.30;39.20;;;;;;4976130;28;20594;-48
2024/02/10 00:56:30;;;;;;;0.10;0.10;;;23.30;39.30;;;;;;4975314;28;20198;-50
2024/02/10 00:59:01;;;;;;;0.00;0.00;;;23.30;39.30;;;;;;4974227;28;20214;-53
2024/02/10 01:01:31;;;;;;;0.00;0.00;;;23.30;39.20;;;;;;4976046;28;20705;-49
2024/02/10 01:04:03;;;;;;;0.00;0.00;;;23.30;39.20;;;;;;4975849;28;20194;-50
2024/02/10 01:06:35;;;;;;;0.00;0.00;;;23.30;39.20;;;;;;4976216;28;20717;-47
2024/02/10 01:09:06;;;;;;;0.00;0.00;;;23.30;39.20;;;;;;4975884;28;20601;-49
2024/02/10 01:11:43;;;;;;;0.00;0.00;;;23.30;39.20;;;;;;4975757;28;20244;-48
2024/02/10 01:16:59;;;;;;;0.00;0.00;;;23.30;39.10;;;;;;4975474;28;20194;-46
2024/02/10 01:19:29;;;;;;;0.00;0.00;;;23.30;38.90;;;;;;4975272;28;20698;-50
2024/02/10 01:22:00;;;;;;;0.00;0.00;;;23.30;38.90;;;;;;4975730;28;20226;-47
2024/02/10 01:24:31;;;;;;;0.00;0.00;;;23.30;38.90;;;;;;4975193;28;20293;-49
2024/02/10 01:27:06;;;;;;;0.10;0.10;;;23.30;38.80;;;;;;4975377;28;20220;-45
2024/02/10 01:29:38;;;;;;;0.00;0.00;;;23.30;39.50;;;;;;4975592;28;20263;-49
2024/02/10 01:32:09;;;;;;;0.00;0.00;;;23.30;38.90;;;;;;4975795;28;20237;-49
2024/02/10 01:34:40;;;;;;;0.08;0.08;;;23.30;38.90;;;;;;4975580;28;20221;-48
2024/02/10 01:37:17;;;;;;;0.00;0.00;;;23.30;38.90;;;;;;4975381;28;20194;-46
2024/02/10 01:39:48;;;;;;;0.10;0.10;;;23.30;38.90;;;;;;4974988;28;20206;-50
2024/02/10 01:42:22;;;;;;;0.00;0.00;;;23.30;39.00;;;;;;4975877;28;20229;-49
2024/02/10 01:44:53;;;;;;;0.00;0.00;;;23.30;39.10;;;;;;4975227;28;20198;-49
2024/02/10 01:47:24;;;;;;;0.00;0.00;;;23.40;39.10;;;;;;4973999;28;20198;-48
2024/02/10 01:49:59;;;;;;;0.00;0.00;;;23.40;39.10;;;;;;4975025;28;20198;-51
2024/02/10 01:52:30;;;;;;;0.00;0.00;;;23.40;39.00;;;;;;4973805;28;20777;-50
2024/02/10 01:55:01;;;;;;;0.05;0.05;;;23.40;38.90;;;;;;4975245;28;20202;-45
2024/02/10 01:57:34;;;;;;;0.00;0.00;;;23.40;38.90;;;;;;4975030;28;20655;-50
2024/02/10 02:00:05;;;;;;;0.00;0.00;;;23.40;38.80;;;;;;4974660;28;20203;-49
2024/02/10 02:02:36;;;;;;;0.10;0.10;;;23.40;38.90;;;;;;4975050;28;20713;-46
2024/02/10 02:05:08;;;;;;;0.00;0.00;;;23.40;38.90;;;;;;4974972;28;20662;-49
2024/02/10 02:07:39;;;;;;;0.00;0.00;;;23.40;38.90;;;;;;4974720;28;20222;-50
2024/02/10 02:10:10;;;;;;;0.00;0.00;;;23.50;38.90;;;;;;4974493;28;20209;-52
2024/02/10 02:12:53;;;;;;;0.00;0.00;;;23.50;38.90;;;;;;4974181;28;20206;-53
2024/02/10 02:15:27;;;;;;;0.00;0.00;;;23.50;38.60;;;;;;4974111;28;20233;-49
2024/02/10 02:17:59;;;;;;;0.00;0.00;;;23.50;38.60;;;;;;4974236;28;20202;-49
2024/02/10 02:20:30;;;;;;;0.00;0.00;;;23.50;38.60;;;;;;4974734;28;20198;-49
2024/02/10 02:23:03;;;;;;;0.00;0.00;;;23.50;38.60;;;;;;4974813;28;20194;-49
2024/02/10 02:25:34;;;;;;;0.00;0.00;;;23.50;38.60;;;;;;4974634;28;20194;-48
2024/02/10 02:28:05;;;;;;;0.00;0.00;;;23.60;38.70;;;;;;4974244;28;20350;-50
2024/02/10 02:30:36;;;;;;;0.00;0.00;;;23.60;38.70;;;;;;4974996;28;20659;-48
2024/02/10 02:33:10;;;;;;;0.00;0.00;;;23.60;38.70;;;;;;4974971;28;20233;-51
2024/02/10 02:35:43;;;;;;;0.00;0.00;;;23.60;38.80;;;;;;4974232;28;20202;-50
2024/02/10 02:38:19;;;;;;;0.00;0.00;;;23.70;38.80;;;;;;4974132;28;20312;-48
2024/02/10 02:40:50;;;;;;;0.00;0.00;;;23.70;38.80;;;;;;4974079;28;20202;-51
2024/02/10 02:43:20;;;;;;;0.00;0.00;;;23.70;38.70;;;;;;4974631;28;20543;-51
2024/02/10 02:45:51;;;;;;;0.00;0.00;;;23.80;38.80;;;;;;4974546;28;20198;-49
2024/02/10 02:48:22;;;;;;;0.00;0.00;;;23.80;38.70;;;;;;4973488;28;20218;-45
2024/02/10 02:50:53;;;;;;;0.00;0.00;;;23.80;38.70;;;;;;4973479;28;20205;-51
2024/02/10 02:53:25;;;;;;;0.00;0.00;;;23.80;38.70;;;;;;4974320;28;20205;-53
2024/02/10 02:55:58;;;;;;;0.00;0.00;;;23.90;38.70;;;;;;4974167;28;20208;-47
2024/02/10 02:58:29;;;;;;;0.00;0.00;;;23.90;38.80;;;;;;4973753;28;20218;-49
2024/02/10 03:00:59;;;;;;;0.10;0.10;;;23.90;38.80;;;;;;4974081;28;20208;-47
2024/02/10 03:03:31;;;;;;;0.00;0.00;;;24.00;38.80;;;;;;4973473;28;20206;-48
2024/02/10 03:06:02;;;;;;;0.00;0.00;;;24.00;38.80;;;;;;4974322;28;20199;-53
2024/02/10 03:08:35;;;;;;;0.00;0.00;;;24.00;38.80;;;;;;4973935;28;20214;-49
2024/02/10 03:11:06;;;;;;;0.00;0.00;;;24.00;38.70;;;;;;4973870;28;20206;-49
2024/02/10 03:13:38;;;;;;;0.10;0.10;;;24.00;38.70;;;;;;4973305;28;20268;-50
2024/02/10 03:16:10;;;;;;;0.00;0.00;;;24.10;39.10;;;;;;4974024;28;20198;-51
2024/02/10 03:18:41;;;;;;;0.00;0.00;;;24.10;38.80;;;;;;4974005;28;20214;-53
2024/02/10 03:21:12;;;;;;;0.00;0.00;;;24.20;38.80;;;;;;4973653;28;20229;-48
2024/02/10 03:23:45;;;;;;;0.00;0.00;;;24.20;38.80;;;;;;4973738;28;20209;-49
2024/02/10 03:26:16;;;;;;;0.00;0.00;;;24.20;38.70;;;;;;4973673;28;20245;-49
2024/02/10 03:28:47;;;;;;;0.00;0.00;;;24.20;38.70;;;;;;4973420;28;20225;-48
2024/02/10 03:31:18;;;;;;;0.00;0.00;;;24.30;38.70;;;;;;4973296;28;20198;-49
2024/02/10 03:33:49;;;;;;;0.00;0.00;;;24.30;38.70;;;;;;4972914;28;20210;-50
2024/02/10 03:36:20;;;;;;;0.00;0.00;;;24.30;38.70;;;;;;4973111;28;20217;-50
2024/02/10 03:38:54;;;;;;;0.00;0.00;;;24.30;38.70;;;;;;4973135;28;20725;-48
2024/02/10 03:41:25;;;;;;;0.10;0.10;;;24.40;38.70;;;;;;4972988;28;20225;-49
2024/02/10 03:43:56;;;;;;;0.00;0.00;;;24.30;38.70;;;;;;4973075;28;20240;-49
2024/02/10 03:46:26;;;;;;;0.00;0.00;;;24.40;38.70;;;;;;4973033;28;20202;-51
2024/02/10 03:48:59;;;;;;;0.00;0.00;;;24.40;38.70;;;;;;4973037;28;20619;-45
2024/02/10 03:51:29;;;;;;;0.00;0.00;;;24.40;38.70;;;;;;4973335;28;20647;-52
2024/02/10 03:54:02;;;;;;;0.00;0.00;;;24.40;38.70;;;;;;4972911;28;20206;-50
2024/02/10 03:56:33;;;;;;;0.00;0.00;;;24.50;38.70;;;;;;4972800;28;20198;-46
2024/02/10 03:59:03;;;;;;;0.00;0.00;;;24.50;38.60;;;;;;4972948;28;20218;-49
2024/02/10 04:01:34;;;;;;;0.00;0.00;;;24.50;38.60;;;;;;4972924;28;20725;-50
2024/02/10 04:04:05;;;;;;;0.00;0.00;;;24.50;38.60;;;;;;4972668;28;20208;-47
2024/02/10 04:06:37;;;;;;;0.00;0.00;;;24.50;38.50;;;;;;4972573;28;20205;-49
2024/02/10 04:09:10;;;;;;;0.00;0.00;;;24.50;38.50;;;;;;4971402;28;20582;-50
2024/02/10 04:11:40;;;;;;;0.00;0.00;;;24.50;38.40;;;;;;4972690;28;20569;-50
2024/02/10 04:14:19;;;;;;;0.00;0.00;;;24.50;38.40;;;;;;4966532;28;20224;-46
2024/02/10 04:16:52;;;;;;;0.10;0.10;;;24.60;38.40;;;;;;4970343;28;20229;-44
2024/02/10 04:19:26;;;;;;;0.00;0.00;;;24.60;38.40;;;;;;4969076;28;20221;-46
2024/02/10 04:21:57;;;;;;;0.03;0.03;;;24.60;38.30;;;;;;4967067;28;20406;-50
2024/02/10 04:24:30;;;;;;;0.00;0.00;;;24.60;38.30;;;;;;4968552;28;20560;-44
2024/02/10 04:27:00;;;;;;;0.05;0.05;;;24.60;38.30;;;;;;4969173;28;20217;-45
2024/02/10 04:29:35;;;;;;;0.00;0.00;;;24.60;38.40;;;;;;4968835;28;20224;-50
2024/02/10 04:32:07;;;;;;;0.00;0.00;;;24.60;38.40;;;;;;4972473;28;20240;-50
2024/02/10 04:34:38;;;;;;;0.00;0.00;;;24.60;38.40;;;;;;4988204;28;20304;-49
2024/02/10 04:37:10;;;;;;;0.00;0.00;;;24.60;38.50;;;;;;4988660;28;20208;-48
2024/02/10 04:39:42;;;;;;;0.00;0.00;;;24.60;38.50;;;;;;4986625;28;20221;-47
2024/02/10 04:42:13;;;;;;;0.00;0.00;;;24.70;38.50;;;;;;4968672;28;20702;-47
2024/02/10 04:44:48;;;;;;;0.00;0.00;;;24.60;38.50;;;;;;4969648;28;20630;-49
2024/02/10 04:47:19;;;;;;;0.00;0.00;;;24.70;38.50;;;;;;4968780;28;20204;-46
2024/02/10 04:49:48;;;;;;;0.00;0.00;;;24.70;38.40;;;;;;4967804;28;20209;-44
2024/02/10 04:52:19;;;;;;;0.00;0.00;;;24.70;38.20;;;;;;4968559;28;20202;-45
2024/02/10 04:54:53;;;;;;;0.00;0.00;;;24.70;38.20;;;;;;4968155;28;20202;-47
2024/02/10 04:57:30;;;;;;;0.00;0.00;;;24.70;38.10;;;;;;4968533;28;20206;-48
2024/02/10 05:00:12;;;;;;;0.00;0.00;;;24.70;38.00;;;;;;4969024;28;20209;-45
2024/02/10 05:02:43;;;;;;;0.00;0.00;;;24.70;38.10;;;;;;4968413;28;20297;-48
2024/02/10 05:05:14;;;;;;;0.00;0.00;;;24.70;38.10;;;;;;4968381;28;20710;-47
2024/02/10 05:07:45;;;;;;;0.00;0.00;;;24.70;38.20;;;;;;4968896;28;20233;-45
2024/02/10 05:10:19;;;;;;;0.00;0.00;;;24.70;38.30;;;;;;4977981;28;20208;-48
2024/02/10 05:12:50;;;;;;;0.00;0.00;;;24.70;38.40;;;;;;4967802;28;20737;-49
2024/02/10 05:15:23;;;;;;;0.00;0.00;;;24.70;38.50;;;;;;4967812;28;20205;-46
2024/02/10 05:17:54;;;;;;;0.00;0.00;;;24.70;38.80;;;;;;4968055;28;20342;-48
2024/02/10 05:20:26;;;;;;;0.00;0.00;;;24.70;39.00;;;;;;4968159;28;20206;-45
2024/02/10 05:22:58;;;;;;;0.00;0.00;;;24.70;39.10;;;;;;4972349;28;20719;-46
2024/02/10 05:25:32;;;;;;;0.00;0.00;;;24.70;39.20;;;;;;4972038;28;20221;-47
2024/02/10 05:28:02;;;;;;;0.00;0.00;;;24.70;39.40;;;;;;4972098;28;20706;-49
2024/02/10 05:30:34;;;;;;;0.00;0.00;;;24.70;39.50;;;;;;4972034;28;20202;-49
2024/02/10 05:33:05;;;;;;;0.00;0.00;;;24.70;39.50;;;;;;4971177;28;20221;-48
2024/02/10 05:35:36;;;;;;;0.00;0.00;;;24.70;39.60;;;;;;4970875;28;20213;-45
2024/02/10 05:38:07;;;;;;;0.00;0.00;;;24.70;39.70;;;;;;4966895;28;20218;-49
2024/02/10 05:40:39;;;;;;;0.00;0.00;;;24.70;39.80;;;;;;4971252;28;20658;-45
2024/02/10 05:43:13;;;;;;;0.00;0.00;;;24.70;39.80;;;;;;4972274;28;20229;-48
2024/02/10 05:45:44;;;;;;;0.10;0.10;;;24.70;39.90;;;;;;4971767;28;20310;-49
2024/02/10 05:48:14;;;;;;;0.00;0.00;;;24.60;39.90;;;;;;4971331;28;20229;-41
2024/02/10 05:50:46;;;;;;;0.05;0.05;;;24.70;40.00;;;;;;4970954;28;20199;-48
2024/02/10 05:53:18;;;;;;;0.00;0.00;;;24.60;40.00;;;;;;4972044;28;20198;-50
2024/02/10 05:55:52;;;;;;;0.00;0.00;;;24.70;40.10;;;;;;4970288;28;20209;-47
2024/02/10 05:58:23;;;;;;;0.00;0.00;;;24.60;40.20;;;;;;4971198;28;20221;-43
2024/02/10 06:00:55;;;;;;;0.00;0.00;;;24.60;40.20;;;;;;4971741;28;20312;-46
2024/02/10 06:03:29;;;;;;;0.00;0.00;;;24.60;40.20;;;;;;4971111;28;20226;-50
2024/02/10 06:06:08;;;;;;;0.00;0.00;;;24.60;40.20;;;;;;4970357;28;20210;-46
2024/02/10 06:08:40;;;;;;;0.00;0.00;;;24.60;40.30;;;;;;4975022;28;20269;-47
2024/02/10 06:11:13;;;;;;;0.00;0.00;;;24.60;40.30;;;;;;4976763;28;20683;-50
2024/02/10 06:13:46;;;;;;;0.00;0.00;;;24.60;40.30;;;;;;4971437;28;20260;-45
2024/02/10 06:16:16;;;;;;;0.00;0.00;;;24.60;40.40;;;;;;4971352;28;20213;-46
2024/02/10 06:18:49;;;;;;;0.00;0.00;;;24.60;40.50;;;;;;4970073;28;20588;-46
2024/02/10 06:21:21;;;;;;;0.00;0.00;;;24.60;40.50;;;;;;4970478;28;20202;-43
2024/02/10 06:23:52;;;;;;;0.05;0.05;;;24.50;40.50;;;;;;4971389;28;20238;-46
2024/02/10 06:26:25;;;;;;;0.00;0.00;;;24.50;40.60;;;;;;4970352;28;20194;-46
2024/02/10 06:28:58;;;;;;;0.00;0.00;;;24.50;40.60;;;;;;4971297;28;20230;-48
2024/02/10 06:31:29;;;;;;;0.00;0.00;;;24.50;40.60;;;;;;4970306;28;20610;-49
2024/02/10 06:34:00;;;;;;;0.00;0.00;;;24.50;40.70;;;;;;4969641;28;20221;-45
2024/02/10 06:36:31;;;;;;;0.10;0.10;;;24.40;40.70;;;;;;4971068;28;20670;-47
2024/02/10 06:39:01;;;;;;;0.08;0.08;;;24.50;40.80;;;;;;4970338;28;20217;-49
2024/02/10 06:41:34;;;;;;;0.00;0.00;;;24.40;40.80;;;;;;4969786;28;20206;-46
2024/02/10 06:44:09;;;;;;;0.00;0.00;;;24.40;40.80;;;;;;4971023;28;20265;-49
2024/02/10 06:46:40;;;;;;;0.00;0.00;;;24.40;40.90;;;;;;4970752;28;20208;-43
2024/02/10 06:49:11;;;;;;;0.00;0.00;;;24.40;40.90;;;;;;4970847;28;20725;-45
2024/02/10 06:51:42;;;;;;;0.00;0.00;;;24.40;40.90;;;;;;4970220;28;20685;-50
2024/02/10 06:54:14;;;;;;;0.00;0.00;;;24.40;41.00;;;;;;4970439;28;20206;-49
2024/02/10 06:56:48;;;;;;;0.00;0.00;;;24.40;41.00;;;;;;4969542;28;20202;-46
2024/02/10 06:59:20;;;;;;;0.05;0.05;;;24.30;40.90;;;;;;4971129;28;20775;-46
2024/02/10 07:01:54;;;;;;;0.00;0.00;;;24.30;41.00;;;;;;4970529;28;20717;-46
2024/02/10 07:04:25;;;;;;;0.00;0.00;;;24.30;41.00;;;;;;4972302;28;20204;-41
2024/02/10 07:06:57;;;;;;;0.00;0.00;;;24.30;41.00;;;;;;4973659;28;20198;-46
2024/02/10 07:09:28;;;;;;;0.00;0.00;;;24.30;41.70;;;;;;4973808;28;20678;-46
2024/02/10 07:12:00;;;;;;;0.00;0.00;;;24.30;41.20;;;;;;4954274;28;20199;-49
2024/02/10 07:14:33;;;;;;;0.03;0.03;;;24.20;41.30;;;;;;4954274;28;20486;-47
2024/02/10 07:17:09;;;;;;;0.00;0.00;;;24.20;41.30;;;;;;4958026;28;20187;-47
2024/02/10 07:19:42;;;;;;;0.00;0.00;;;24.20;41.40;;;;;;4973638;28;20217;-50
2024/02/10 07:22:13;;;;;;;0.05;0.05;;;24.20;41.40;;;;;;4973830;28;20213;-46
2024/02/10 07:24:46;;;;;;;0.00;0.00;;;24.20;41.50;;;;;;4973156;28;20193;-49
2024/02/10 07:27:22;;;;;;;0.00;0.00;;;24.20;41.50;;;;;;4973495;28;20198;-47
2024/02/10 07:29:53;;;;;;;0.00;0.00;;;24.20;41.50;;;;;;4973607;28;20189;-50
2024/02/10 07:32:24;;;;;;;0.00;0.00;;;24.20;42.20;;;;;;4973373;28;20213;-47
2024/02/10 07:34:54;;;;;;;0.00;0.00;;;24.20;41.50;;;;;;4973295;28;20240;-45
2024/02/10 07:37:25;;;;;;;0.00;0.00;;;24.20;41.60;;;;;;4972956;28;20208;-44
2024/02/10 07:39:57;;;;;;;0.00;0.00;;;24.20;41.60;;;;;;4972468;28;20206;-48
2024/02/10 07:42:30;;;;;;;0.00;0.00;;;24.20;41.60;;;;;;4973034;28;20205;-41
2024/02/10 07:45:00;;;;;;;0.00;0.00;;;24.10;41.60;;;;;;4972382;28;20217;-48
2024/02/10 07:47:31;;;;;;;0.00;0.00;;;24.10;41.60;;;;;;4972844;28;20209;-42
2024/02/10 07:50:03;;;;;;;0.10;0.10;;;24.10;41.70;;;;;;4972908;28;20205;-44
2024/02/10 07:52:34;;;;;;;0.00;0.00;;;24.10;41.70;;;;;;4973121;28;20280;-48
2024/02/10 07:55:05;;;;;;;0.00;0.00;;;24.10;41.70;;;;;;4972401;28;20194;-43
2024/02/10 07:57:37;;;;;;;0.00;0.00;;;24.10;41.70;;;;;;4972605;28;20198;-46
2024/02/10 08:00:10;;;;;;;0.00;0.00;;;24.10;41.70;;;;;;4972899;28;20204;-48
2024/02/10 08:02:43;;;;;;;0.00;0.00;;;24.00;41.70;;;;;;4970261;28;21505;-46
2024/02/10 08:05:20;;;;;;;0.00;0.00;;;24.00;41.70;;;;;;4971296;28;20233;-41
2024/02/10 08:07:50;;;;;;;0.00;0.00;;;24.00;41.70;;;;;;4972395;28;20643;-46
2024/02/10 08:10:21;;;;;;;0.03;0.03;;;24.00;41.70;;;;;;4971930;28;20206;-48
2024/02/10 08:12:54;;;;;;;0.00;0.00;;;24.00;41.70;;;;;;4972305;28;20209;-51
2024/02/10 08:15:26;;;;;;;0.00;0.00;;;24.00;41.80;;;;;;4972764;28;20198;-50
2024/02/10 08:17:59;;;;;;;0.00;0.00;;;24.00;41.80;;;;;;4972325;28;20218;-45
2024/02/10 08:20:29;;;;;;;0.00;0.00;;;23.90;41.70;;;;;;4972013;28;20241;-46
2024/02/10 08:23:00;;;;;;;0.03;0.03;;;23.90;41.80;;;;;;4972464;28;20225;-48
2024/02/10 08:25:31;;;;;;;0.00;0.00;;;23.90;41.80;;;;;;4971784;28;20206;-46
2024/02/10 08:28:03;;;;;;;0.00;0.00;;;23.90;41.80;;;;;;4972620;28;20229;-43
2024/02/10 08:30:34;;;;;;;0.00;0.00;;;23.90;41.90;;;;;;4972899;28;20233;-44
2024/02/10 08:33:05;;;;;;;0.00;0.00;;;23.90;41.90;;;;;;4971592;28;20214;-45
2024/02/10 08:35:36;;;;;;;0.00;0.00;;;23.90;41.90;;;;;;4972414;28;20198;-46
2024/02/10 08:38:07;;;;;;;0.00;0.00;;;23.80;41.90;;;;;;4972644;28;20297;-46
2024/02/10 08:40:37;;;;;;;0.00;0.00;;;23.80;41.90;;;;;;4972189;28;20617;-47
2024/02/10 08:43:10;;;;;;;0.00;0.00;;;23.80;41.90;;;;;;4972249;28;20226;-49
2024/02/10 08:45:41;;;;;;;0.00;0.00;;;23.80;41.90;;;;;;4995505;23;20737;-52
2024/02/10 08:48:12;;;;;;;0.00;0.00;;;23.80;41.90;;;;;;5038475;28;20215;-50
2024/02/10 08:50:46;;;;;;;0.00;0.00;;;23.80;42.00;;;;;;5040188;28;20200;-53
2024/02/10 08:53:17;;;;;;;0.00;0.00;;;23.80;41.90;;;;;;5047452;28;20195;-49
2024/02/10 08:55:49;;;;;;;0.00;0.00;;;23.70;41.90;;;;;;5047850;28;20195;-49
2024/02/10 08:58:22;;;;;;;0.00;0.00;;;23.70;41.90;;;;;;5051210;28;20717;-51
2024/02/10 09:00:57;;;;;;;0.00;0.00;;;23.70;42.00;;;;;;5050449;28;20203;-50
2024/02/10 09:03:31;;;;;;;0.00;0.00;;;23.70;42.00;;;;;;5051242;28;20218;-49
2024/02/10 09:06:01;;;;;;;0.10;0.10;;;23.70;42.00;;;;;;5050481;28;20279;-48
2024/02/10 09:08:33;;;;;;;0.00;0.00;;;23.70;42.00;;;;;;5050883;28;20246;-47
2024/02/10 09:11:04;;;;;;;0.00;0.00;;;23.60;42.00;;;;;;5050739;28;20257;-49
2024/02/10 09:13:39;;;;;;;0.00;0.00;;;23.60;42.00;;;;;;5050670;28;20287;-50
2024/02/10 09:16:09;;;;;;;0.00;0.00;;;23.60;42.10;;;;;;5038228;28;20202;-48
2024/02/10 09:18:40;;;;;;;0.00;0.00;;;23.60;42.10;;;;;;5051053;28;20596;-52
2024/02/10 09:21:12;;;;;;;0.00;0.00;;;23.60;42.10;;;;;;5050569;28;20223;-47
2024/02/10 09:23:43;;;;;;;0.00;0.00;;;23.60;42.10;;;;;;5050457;28;20226;-54
2024/02/10 09:26:15;;;;;;;0.00;0.00;;;23.60;42.10;;;;;;5051161;28;20207;-51
2024/02/10 09:28:48;;;;;;;0.00;0.00;;;23.50;42.20;;;;;;5050164;28;20226;-48
2024/02/10 09:31:19;;;;;;;0.00;0.00;;;23.50;42.20;;;;;;5050654;28;20195;-47
2024/02/10 09:33:50;;;;;;;0.00;0.00;;;23.50;42.20;;;;;;5049681;28;20203;-49
2024/02/10 09:36:20;;;;;;;0.00;0.00;;;23.50;42.20;;;;;;5050250;28;20199;-50
2024/02/10 09:38:51;;;;;;;0.08;0.08;;;23.50;42.20;;;;;;5049068;28;20211;-48
2024/02/10 09:41:22;;;;;;;0.00;0.00;;;23.50;42.20;;;;;;5049914;28;20593;-48
2024/02/10 09:43:55;;;;;;;0.00;0.00;;;23.50;42.20;;;;;;5049768;28;20625;-49
2024/02/10 09:46:26;;;;;;;0.00;0.00;;;23.40;42.20;;;;;;5053169;22;20264;-51
2024/02/10 09:48:57;;;;;;;0.00;0.00;;;23.50;42.20;;;;;;5044325;28;20685;-51
2024/02/10 09:51:28;;;;;;;0.00;0.00;;;23.40;42.20;;;;;;5049748;28;20210;-49
2024/02/10 09:53:58;;;;;;;0.00;0.00;;;23.40;42.20;;;;;;5050537;28;20215;-45
2024/02/10 09:56:29;;;;;;;0.00;0.00;;;23.40;42.30;;;;;;5050218;28;20206;-50
2024/02/10 09:59:03;;;;;;;0.00;0.00;;;23.40;42.30;;;;;;5049517;28;20586;-52
2024/02/10 10:01:36;;;;;;;0.00;0.00;;;23.40;42.30;;;;;;5049984;28;20632;-46
2024/02/10 10:04:11;;;;;;;0.00;0.00;;;23.40;42.30;;;;;;5050023;28;20570;-46
2024/02/10 10:06:43;;;;;;;0.00;0.00;;;23.30;42.40;;;;;;5050038;28;20198;-47
2024/02/10 10:09:16;;;;;;;0.00;0.00;;;23.30;42.40;;;;;;5048711;28;20292;-46
2024/02/10 10:11:48;;;;;;;0.10;0.10;;;23.30;42.40;;;;;;5049909;28;20203;-44
2024/02/10 10:14:22;;;;;;;0.00;0.00;;;23.30;42.40;;;;;;5049881;28;20206;-43
2024/02/10 10:17:01;;;;;;;0.00;0.00;;;23.30;42.50;;;;;;5049723;28;20204;-43
2024/02/10 10:19:32;;;;;;;0.00;0.00;;;23.30;42.50;;;;;;5049871;28;20289;-46
2024/02/10 10:22:02;;;;;;;0.00;0.00;;;23.30;42.50;;;;;;5049611;28;20195;-49
2024/02/10 10:24:33;;;;;;;0.00;0.00;;;23.30;42.50;;;;;;5047521;28;20598;-43
2024/02/10 10:27:04;;;;;;;0.10;0.10;;;23.30;42.50;;;;;;5029335;28;20204;-45
2024/02/10 10:29:38;;;;;;;0.00;0.00;;;23.20;42.50;;;;;;5046957;28;20722;-47
2024/02/10 10:32:10;;;;;;;0.00;0.00;;;23.20;42.50;;;;;;5069290;28;20200;-45
2024/02/10 10:34:42;;;;;;;0.00;0.00;;;23.20;42.50;;;;;;5050172;28;20195;-43
2024/02/10 10:37:15;;;;;;;0.00;0.00;;;23.20;42.60;;;;;;5048316;28;20785;-48
2024/02/10 10:39:49;;;;;;;0.00;0.00;;;23.20;42.60;;;;;;5048960;28;20587;-45
2024/02/10 10:42:21;;;;;;;0.00;0.00;;;23.20;42.60;;;;;;5048791;28;20602;-47
2024/02/10 10:44:56;;;;;;;0.00;0.00;;;23.10;42.60;;;;;;5048271;28;20308;-47
2024/02/10 10:47:27;;;;;;;0.00;0.00;;;23.10;42.60;;;;;;5049071;28;20202;-49
2024/02/10 10:49:57;;;;;;;0.00;0.00;;;23.10;42.60;;;;;;5048229;28;20223;-49
2024/02/10 10:52:32;;;;;;;0.00;0.00;;;23.10;42.70;;;;;;5048970;28;20200;-48
2024/02/10 10:55:04;;;;;;;0.00;0.00;;;23.10;42.70;;;;;;5048462;28;20210;-49
2024/02/10 10:57:36;;;;;;;0.00;0.00;;;23.10;42.70;;;;;;5048631;28;20210;-49
2024/02/10 11:00:12;;;;;;;0.00;0.00;;;23.00;42.70;;;;;;5048989;28;20227;-51
2024/02/10 11:02:45;;;;;;;0.00;0.00;;;23.00;42.70;;;;;;5049155;28;20253;-45
2024/02/10 11:05:16;;;;;;;0.00;0.00;;;23.00;42.70;;;;;;5048702;28;20231;-51
2024/02/10 11:07:49;;;;;;;0.10;0.10;;;23.00;42.70;;;;;;5046384;28;20223;-44
2024/02/10 11:10:39;;;;;;;0.10;0.10;;;23.00;42.70;;;;;;5048129;28;20304;-50
2024/02/10 11:13:11;;;;;;;0.00;0.00;;;23.00;42.80;;;;;;5048115;28;20206;-48
2024/02/10 11:15:43;;;;;;;0.00;0.00;;;23.00;42.70;;;;;;5048067;28;20716;-53
2024/02/10 11:18:22;;;;;;;0.00;0.00;;;23.00;42.80;;;;;;5047680;28;20218;-44
2024/02/10 11:20:53;;;;;;;0.00;0.00;;;22.90;42.80;;;;;;5048462;28;20200;-45
2024/02/10 11:23:25;;;;;;;0.00;0.00;;;22.90;42.80;;;;;;5047388;28;20237;-42
2024/02/10 11:25:57;;;;;;;0.00;0.00;;;22.90;42.80;;;;;;5049167;28;20661;-46
2024/02/10 11:28:29;;;;;;;0.03;0.03;;;22.90;42.80;;;;;;5050133;28;20711;-46
2024/02/10 11:31:09;;;;;;;0.00;0.00;;;22.90;42.90;;;;;;5051834;28;20283;-48
2024/02/10 11:33:40;;;;;;;0.00;0.00;;;22.90;42.90;;;;;;5052006;28;20716;-46
2024/02/10 11:36:11;;;;;;;0.00;0.00;;;22.90;42.90;;;;;;5052019;28;20207;-41
2024/02/10 11:38:42;;;;;;;0.00;0.00;;;22.90;42.90;;;;;;5051407;28;20216;-46
2024/02/10 11:41:15;;;;;;;0.10;0.10;;;22.80;42.90;;;;;;5050684;28;20195;-48
2024/02/10 11:43:46;;;;;;;0.00;0.00;;;22.80;42.90;;;;;;5051147;28;20249;-46
2024/02/10 11:46:18;;;;;;;0.00;0.00;;;22.80;42.90;;;;;;5051806;28;20207;-50
2024/02/10 11:48:50;;;;;;;0.00;0.00;;;22.80;43.00;;;;;;5051767;28;20216;-45
2024/02/10 11:51:22;;;;;;;0.00;0.00;;;22.80;43.00;;;;;;5051169;28;20255;-44
2024/02/10 11:53:54;;;;;;;0.00;0.00;;;22.70;43.00;;;;;;5051234;28;20210;-47
2024/02/10 11:56:26;;;;;;;0.00;0.00;;;22.80;43.00;;;;;;5051329;28;20272;-45
2024/02/10 11:58:59;;;;;;;0.00;0.00;;;22.80;43.00;;;;;;5051519;28;20219;-46
2024/02/10 12:01:32;;;;;;;0.00;0.00;;;22.70;43.00;;;;;;5049588;28;20495;-44
2024/02/10 12:04:06;;;;;;;0.00;0.00;;;22.70;43.00;;;;;;5048468;28;20683;-48
2024/02/10 12:06:39;;;;;;;0.03;0.03;;;22.70;43.00;;;;;;5051086;28;20667;-45
2024/02/10 12:09:11;;;;;;;0.10;0.10;;;22.70;43.00;;;;;;5049116;28;20576;-46
2024/02/10 12:11:41;;;;;;;0.10;0.10;;;22.70;43.10;;;;;;5050418;28;20196;-47
2024/02/10 12:14:13;;;;;;;0.00;0.00;;;22.70;43.60;;;;;;5050668;28;20567;-48
2024/02/10 12:16:46;;;;;;;0.00;0.00;;;22.70;43.00;;;;;;5051374;28;20198;-46
2024/02/10 12:19:19;;;;;;;0.00;0.00;;;22.60;43.00;;;;;;5051662;28;20215;-45
2024/02/10 12:21:51;;;;;;;0.00;0.00;;;22.60;43.00;;;;;;5051503;28;20196;-45
2024/02/10 12:24:23;;;;;;;0.00;0.00;;;22.60;43.00;;;;;;5051209;28;20587;-47
2024/02/10 12:26:54;;;;;;;0.10;0.10;;;22.60;43.00;;;;;;5050854;28;20192;-53
2024/02/10 12:29:25;;;;;;;0.00;0.00;;;22.60;43.00;;;;;;5051438;28;20687;-46
2024/02/10 12:31:58;;;;;;;0.00;0.00;;;22.50;43.00;;;;;;5050933;28;20549;-48
2024/02/10 12:34:29;;;;;;;0.00;0.00;;;22.50;43.00;;;;;;5052747;28;20210;-51
2024/02/10 12:36:59;;;;;;;0.00;0.00;;;22.50;43.00;;;;;;5070474;28;20654;-50
2024/02/10 12:39:30;;;;;;;0.00;0.00;;;22.50;43.00;;;;;;5061168;28;20250;-54
2024/02/10 12:42:01;;;;;;;0.00;0.00;;;22.50;43.00;;;;;;5051559;28;20195;-53
2024/02/10 12:44:32;;;;;;;0.00;0.00;;;22.50;43.00;;;;;;5050828;28;20679;-48
2024/02/10 12:47:04;;;;;;;0.00;0.00;;;22.50;43.10;;;;;;5051249;28;20199;-53
2024/02/10 12:49:35;;;;;;;0.00;0.00;;;22.50;43.10;;;;;;5051860;28;20269;-49
2024/02/10 12:52:06;;;;;;;0.00;0.00;;;22.40;43.10;;;;;;5051102;28;20196;-50
2024/02/10 12:54:40;;;;;;;0.00;0.00;;;22.40;43.10;;;;;;5051194;28;20210;-51
2024/02/10 12:57:12;;;;;;;0.00;0.00;;;22.40;43.10;;;;;;5051070;28;20607;-48
2024/02/10 12:59:44;;;;;;;0.10;0.10;;;22.40;43.10;;;;;;5050936;28;20192;-52
2024/02/10 13:02:19;;;;;;;0.00;0.00;;;22.40;43.10;;;;;;5050710;28;20187;-52
2024/02/10 13:04:50;;;;;;;0.00;0.00;;;22.30;43.10;;;;;;5048210;28;20305;-51
2024/02/10 13:07:21;;;;;;;0.10;0.10;;;22.40;43.10;;;;;;5050023;28;20192;-51
2024/02/10 13:09:52;;;;;;;0.10;0.10;;;22.30;43.10;;;;;;5050268;28;20187;-54
2024/02/10 13:12:23;;;;;;;0.10;0.10;;;22.30;43.10;;;;;;5050165;28;20191;-50
2024/02/10 13:14:54;;;;;;;0.08;0.08;;;22.30;43.10;;;;;;5050512;28;20188;-53